createdAt,value
2023-08-03T00:01:57.226Z,0.60
2023-08-03T00:04:23.589Z,0.70
2023-08-03T00:06:49.944Z,0.52
2023-08-03T00:09:19.533Z,0.80
2023-08-03T00:11:46.028Z,0.65
2023-08-03T00:14:12.413Z,0.57
2023-08-03T00:16:38.772Z,0.68
2023-08-03T00:19:05.059Z,0.70
2023-08-03T00:21:31.423Z,0.50
2023-08-03T00:23:57.709Z,0.60
2023-08-03T00:26:24.057Z,0.60
2023-08-03T00:28:50.358Z,0.60
2023-08-03T00:31:16.762Z,1.02
2023-08-03T00:33:43.130Z,0.60
2023-08-03T00:36:09.525Z,0.68
2023-08-03T00:38:35.995Z,0.50
2023-08-03T00:41:02.322Z,0.52
2023-08-03T00:43:28.684Z,0.55
2023-08-03T00:45:55.056Z,0.45
2023-08-03T00:48:22.710Z,0.55
2023-08-03T00:50:49.092Z,1.15
2023-08-03T00:53:15.406Z,0.52
2023-08-03T00:55:41.756Z,0.63
2023-08-03T00:58:10.402Z,0.57
2023-08-03T01:00:37.869Z,0.50
2023-08-03T01:03:04.280Z,1.05
2023-08-03T01:05:34.702Z,0.50
2023-08-03T01:08:01.034Z,0.60
2023-08-03T01:10:28.722Z,0.73
2023-08-03T01:12:56.021Z,0.70
2023-08-03T01:15:22.337Z,0.47
2023-08-03T01:17:48.650Z,0.50
2023-08-03T01:20:16.186Z,0.60
2023-08-03T01:22:43.157Z,0.52
2023-08-03T01:25:12.244Z,0.60
2023-08-03T01:27:38.833Z,0.60
2023-08-03T01:30:05.801Z,0.77
2023-08-03T01:32:32.641Z,0.73
2023-08-03T01:35:00.208Z,0.75
2023-08-03T01:37:27.475Z,0.68
2023-08-03T01:39:53.794Z,0.50
2023-08-03T01:42:20.121Z,0.70
2023-08-03T01:44:46.892Z,0.60
2023-08-03T01:47:13.216Z,0.70
2023-08-03T01:49:39.599Z,0.93
2023-08-03T01:52:06.025Z,0.88
2023-08-03T01:54:32.413Z,0.70
2023-08-03T01:56:58.756Z,0.90
2023-08-03T01:59:25.059Z,0.80
2023-08-03T02:01:51.433Z,0.68
2023-08-03T02:04:17.885Z,1.00
2023-08-03T02:06:48.820Z,0.73
2023-08-03T02:09:15.214Z,0.70
2023-08-03T02:11:44.244Z,0.85
2023-08-03T02:14:10.891Z,0.70
2023-08-03T02:16:37.406Z,0.82
2023-08-03T02:19:03.832Z,0.63
2023-08-03T02:21:30.182Z,0.68
2023-08-03T02:23:59.114Z,0.70
2023-08-03T02:26:25.521Z,1.02
2023-08-03T02:28:51.843Z,0.80
2023-08-03T02:31:18.162Z,1.05
2023-08-03T02:33:44.512Z,0.88
2023-08-03T02:36:13.039Z,0.85
2023-08-03T02:38:39.414Z,0.90
2023-08-03T02:41:05.733Z,0.70
2023-08-03T02:43:32.128Z,0.70
2023-08-03T02:45:58.493Z,0.70
2023-08-03T02:48:24.892Z,0.73
2023-08-03T02:50:51.357Z,0.90
2023-08-03T02:53:17.740Z,0.60
2023-08-03T02:55:44.133Z,0.90
2023-08-03T02:58:10.437Z,1.33
2023-08-03T03:00:36.745Z,0.98
2023-08-03T03:03:03.240Z,0.88
2023-08-03T03:05:29.649Z,0.80
2023-08-03T03:07:56.116Z,0.80
2023-08-03T03:10:22.453Z,0.82
2023-08-03T03:12:51.050Z,0.85
2023-08-03T03:15:17.407Z,0.82
2023-08-03T03:17:43.903Z,0.90
2023-08-03T03:20:11.526Z,0.70
2023-08-03T03:22:37.870Z,0.95
2023-08-03T03:25:04.875Z,0.80
2023-08-03T03:27:31.237Z,0.70
2023-08-03T03:30:00.218Z,0.70
2023-08-03T03:32:26.734Z,0.88
2023-08-03T03:34:53.261Z,0.95
2023-08-03T03:37:19.653Z,0.85
2023-08-03T03:39:45.996Z,0.70
2023-08-03T03:42:12.278Z,0.80
2023-08-03T03:44:38.762Z,1.00
2023-08-03T03:47:05.705Z,0.90
2023-08-03T03:49:32.062Z,0.60
2023-08-03T03:51:58.392Z,0.65
2023-08-03T03:54:24.702Z,0.90
2023-08-03T03:56:51.006Z,0.63
2023-08-03T03:59:17.320Z,0.63
2023-08-03T04:01:44.023Z,0.73
2023-08-03T04:04:10.494Z,0.65
2023-08-03T04:06:36.859Z,0.70
2023-08-03T04:09:03.342Z,0.88
2023-08-03T04:11:29.645Z,0.88
2023-08-03T04:13:56.922Z,0.63
2023-08-03T04:16:23.436Z,0.55
2023-08-03T04:18:49.781Z,0.90
2023-08-03T04:21:16.096Z,0.88
2023-08-03T04:23:42.525Z,0.80
2023-08-03T04:26:09.276Z,0.68
2023-08-03T04:28:35.754Z,1.05
2023-08-03T04:31:02.366Z,0.65
2023-08-03T04:33:28.754Z,0.70
2023-08-03T04:35:55.106Z,0.80
2023-08-03T04:38:21.477Z,0.70
2023-08-03T04:40:47.823Z,0.43
2023-08-03T04:43:14.207Z,0.80
2023-08-03T04:45:40.562Z,0.73
2023-08-03T04:48:06.894Z,0.50
2023-08-03T04:50:33.356Z,0.80
2023-08-03T04:52:59.657Z,0.63
2023-08-03T04:55:27.217Z,0.60
2023-08-03T04:57:53.508Z,0.40
2023-08-03T05:00:22.623Z,0.60
2023-08-03T05:02:51.852Z,0.80
2023-08-03T05:05:18.245Z,0.63
2023-08-03T05:07:44.567Z,0.68
2023-08-03T05:10:12.141Z,0.88
2023-08-03T05:12:42.781Z,0.77
2023-08-03T05:15:09.673Z,0.73
2023-08-03T05:17:36.054Z,0.73
2023-08-03T05:20:02.599Z,0.85
2023-08-03T05:22:28.952Z,0.55
2023-08-03T05:24:55.274Z,0.70
2023-08-03T05:27:23.835Z,0.50
2023-08-03T05:29:50.478Z,0.57
2023-08-03T05:32:16.778Z,0.50
2023-08-03T05:34:43.220Z,0.98
2023-08-03T05:37:09.653Z,0.50
2023-08-03T05:39:36.006Z,0.50
2023-08-03T05:42:02.611Z,0.45
2023-08-03T05:44:29.019Z,0.43
2023-08-03T05:46:57.631Z,0.38
2023-08-03T05:49:27.901Z,0.73
2023-08-03T05:51:56.679Z,0.68
2023-08-03T05:54:23.063Z,0.82
2023-08-03T05:56:49.375Z,0.63
2023-08-03T05:59:23.231Z,0.70
2023-08-03T06:01:50.604Z,0.45
2023-08-03T06:04:17.596Z,0.75
2023-08-03T06:06:44.546Z,0.77
2023-08-03T06:09:12.520Z,0.50
2023-08-03T06:11:39.465Z,1.15
2023-08-03T06:14:06.530Z,0.55
2023-08-03T06:16:33.407Z,0.65
2023-08-03T06:19:02.773Z,0.40
2023-08-03T06:21:29.337Z,0.40
2023-08-03T06:23:58.213Z,0.50
2023-08-03T06:26:26.741Z,0.70
2023-08-03T06:28:55.096Z,0.57
2023-08-03T06:31:29.612Z,0.50
2023-08-03T06:33:56.339Z,0.43
2023-08-03T06:36:26.505Z,0.70
2023-08-03T06:38:54.739Z,0.52
2023-08-03T06:41:24.378Z,0.63
2023-08-03T06:43:51.306Z,0.50
2023-08-03T06:46:17.729Z,0.50
2023-08-03T06:48:44.095Z,0.47
2023-08-03T06:51:10.606Z,0.60
2023-08-03T06:53:37.034Z,0.52
2023-08-03T06:56:04.361Z,0.52
2023-08-03T06:58:30.747Z,0.50
2023-08-03T07:00:57.110Z,0.50
2023-08-03T07:03:23.581Z,0.50
2023-08-03T07:05:50.035Z,0.40
2023-08-03T07:08:16.456Z,0.85
2023-08-03T07:10:42.986Z,0.45
2023-08-03T07:13:09.674Z,0.73
2023-08-03T07:15:36.031Z,0.60
2023-08-03T07:18:03.251Z,0.60
2023-08-03T07:20:29.757Z,0.63
2023-08-03T07:22:56.159Z,0.65
2023-08-03T07:25:22.604Z,0.70
2023-08-03T07:27:48.947Z,0.60
2023-08-03T07:30:15.451Z,0.60
2023-08-03T07:32:41.818Z,0.70
2023-08-03T07:35:08.238Z,0.57
2023-08-03T07:37:34.584Z,0.68
2023-08-03T07:40:03.285Z,0.63
2023-08-03T07:42:30.043Z,0.70
2023-08-03T07:44:56.507Z,0.70
2023-08-03T07:47:22.986Z,0.30
2023-08-03T07:49:49.286Z,1.02
2023-08-03T07:52:15.644Z,0.68
2023-08-03T07:54:41.952Z,0.70
2023-08-03T07:57:11.060Z,0.85
2023-08-03T07:59:37.701Z,0.82
2023-08-03T08:02:05.449Z,0.70
2023-08-03T08:04:31.833Z,0.45
2023-08-03T08:06:58.215Z,0.50
2023-08-03T08:09:25.695Z,0.75
2023-08-03T08:11:52.210Z,0.70
2023-08-03T08:14:18.622Z,0.70
2023-08-03T08:16:48.451Z,0.70
2023-08-03T08:19:17.187Z,0.75
2023-08-03T08:21:43.828Z,0.70
2023-08-03T08:24:10.559Z,0.70
2023-08-03T08:26:37.141Z,0.88
2023-08-03T08:29:05.837Z,0.63
2023-08-03T08:34:03.554Z,0.70
2023-08-03T08:36:29.991Z,0.80
2023-08-03T08:38:56.346Z,0.85
2023-08-03T08:41:22.725Z,0.85
2023-08-03T08:43:49.075Z,0.63
2023-08-03T08:46:15.446Z,0.98
2023-08-03T08:51:11.587Z,0.70
2023-08-03T08:57:04.046Z,0.98
2023-08-03T09:01:25.058Z,1.00
2023-08-03T09:06:27.504Z,1.10
2023-08-03T09:08:55.753Z,1.15
2023-08-03T09:11:36.657Z,0.80
2023-08-03T09:14:04.885Z,0.77
2023-08-03T09:16:31.307Z,1.13
2023-08-03T09:18:57.660Z,0.90
2023-08-03T09:28:54.757Z,0.90
2023-08-03T09:34:01.047Z,1.38
2023-08-03T09:39:31.147Z,0.90
2023-08-03T09:41:58.375Z,1.20
2023-08-03T09:44:26.988Z,1.50
2023-08-03T09:46:53.370Z,1.10
2023-08-03T09:49:19.745Z,1.20
2023-08-03T09:54:24.335Z,1.45
2023-08-03T09:59:27.809Z,1.08
2023-08-03T10:01:58.221Z,1.00
2023-08-03T10:04:29.012Z,1.02
2023-08-03T10:06:58.152Z,1.33
2023-08-03T10:09:28.669Z,1.20
2023-08-03T10:11:57.919Z,1.15
2023-08-03T10:14:28.533Z,1.00
2023-08-03T10:16:55.698Z,1.00
2023-08-03T10:19:22.210Z,0.90
2023-08-03T10:21:48.636Z,0.80
2023-08-03T10:24:15.809Z,1.00
2023-08-03T10:26:43.472Z,1.20
2023-08-03T10:29:10.421Z,0.90
2023-08-03T10:31:52.423Z,1.00
2023-08-03T10:34:24.501Z,0.80
2023-08-03T10:36:53.064Z,0.80
2023-08-03T10:39:39.547Z,0.90
2023-08-03T10:42:25.196Z,0.70
2023-08-03T10:44:52.067Z,1.00
2023-08-03T10:47:25.463Z,0.60
2023-08-03T10:49:53.768Z,0.90
2023-08-03T10:52:20.359Z,1.00
2023-08-03T10:54:47.204Z,0.70
2023-08-03T10:57:15.071Z,0.65
2023-08-03T10:59:43.805Z,0.70
2023-08-03T11:02:22.306Z,0.63
2023-08-03T11:04:54.660Z,0.90
2023-08-03T11:07:25.406Z,0.80
2023-08-03T11:09:53.262Z,0.60
2023-08-03T11:12:20.036Z,0.88
2023-08-03T11:14:47.966Z,0.70
2023-08-03T11:17:16.109Z,1.10
2023-08-03T11:19:43.673Z,0.68
2023-08-03T11:22:10.025Z,0.88
2023-08-03T11:24:36.515Z,0.80
2023-08-03T11:27:04.463Z,0.90
2023-08-03T11:29:31.174Z,0.60
2023-08-03T11:31:57.672Z,0.68
2023-08-03T11:34:26.047Z,0.70
2023-08-03T11:36:52.928Z,0.63
2023-08-03T11:39:20.663Z,0.68
2023-08-03T11:41:48.376Z,0.80
2023-08-03T11:44:15.052Z,0.80
2023-08-03T11:46:41.674Z,1.00
2023-08-03T11:49:13.086Z,0.70
2023-08-03T11:51:39.560Z,0.75
2023-08-03T11:54:06.767Z,0.60
2023-08-03T11:56:45.518Z,0.88
2023-08-03T11:59:12.208Z,0.50
2023-08-03T12:01:49.525Z,0.70
2023-08-03T12:04:17.404Z,0.82
2023-08-03T12:09:20.004Z,0.70
2023-08-03T12:14:18.882Z,0.80
2023-08-03T12:16:46.635Z,0.60
2023-08-03T12:19:13.651Z,0.68
2023-08-03T12:21:40.170Z,0.93
2023-08-03T12:24:09.992Z,1.05
2023-08-03T12:26:37.216Z,0.70
2023-08-03T12:31:34.414Z,0.55
2023-08-03T12:34:01.008Z,0.80
2023-08-03T12:36:27.597Z,0.75
2023-08-03T12:38:54.397Z,0.77
2023-08-03T12:41:20.934Z,0.60
2023-08-03T12:43:47.922Z,0.60
2023-08-03T12:46:14.499Z,0.60
2023-08-03T12:48:41.111Z,0.50
2023-08-03T12:51:07.612Z,0.70
2023-08-03T12:53:34.112Z,0.68
2023-08-03T12:56:00.541Z,0.70
2023-08-03T12:58:26.888Z,0.65
2023-08-03T13:00:56.987Z,0.60
2023-08-03T13:03:23.522Z,0.75
2023-08-03T13:05:50.020Z,0.60
2023-08-03T13:08:18.372Z,0.50
2023-08-03T13:10:46.138Z,0.73
2023-08-03T13:13:13.770Z,1.10
2023-08-03T13:15:40.435Z,0.60
2023-08-03T13:18:07.139Z,0.40
2023-08-03T13:20:34.460Z,0.60
2023-08-03T13:23:06.247Z,0.60
2023-08-03T13:25:32.623Z,0.50
2023-08-03T13:28:00.343Z,0.70
2023-08-03T13:30:26.930Z,0.50
2023-08-03T13:32:53.382Z,0.50
2023-08-03T13:35:19.852Z,0.88
2023-08-03T13:37:46.255Z,0.60
2023-08-03T13:40:14.326Z,0.77
2023-08-03T13:42:40.688Z,0.68
2023-08-03T13:45:07.365Z,0.57
2023-08-03T13:47:33.870Z,0.60
2023-08-03T13:50:00.597Z,0.60
2023-08-03T13:52:27.207Z,0.70
2023-08-03T13:54:53.715Z,0.70
2023-08-03T14:00:02.384Z,0.60
2023-08-03T14:05:01.206Z,0.52
2023-08-03T14:12:58.988Z,0.70
2023-08-03T14:22:43.722Z,0.85
2023-08-03T14:27:51.462Z,0.90
2023-08-03T14:30:20.239Z,0.52
2023-08-03T14:32:47.862Z,0.50
2023-08-03T14:37:43.909Z,0.90
2023-08-03T14:40:10.357Z,0.80
2023-08-03T14:42:39.215Z,0.75
2023-08-03T14:45:06.009Z,0.68
2023-08-03T14:47:34.806Z,0.90
2023-08-03T14:52:36.020Z,0.70
2023-08-03T14:55:02.474Z,0.90
2023-08-03T14:57:28.952Z,1.02
2023-08-03T14:59:55.624Z,1.15
2023-08-03T15:02:22.121Z,1.10
2023-08-03T15:04:49.071Z,1.10
2023-08-03T15:07:16.039Z,1.20
2023-08-03T15:09:43.278Z,1.40
2023-08-03T15:12:09.966Z,1.30
2023-08-03T15:14:36.546Z,1.58
2023-08-03T15:17:16.370Z,1.23
2023-08-03T15:22:16.491Z,1.23
2023-08-03T15:24:44.290Z,1.58
2023-08-03T15:27:23.065Z,1.70
2023-08-03T15:29:56.097Z,1.67
2023-08-03T15:34:53.826Z,1.42
2023-08-03T15:37:25.316Z,1.60
2023-08-03T15:39:53.661Z,1.52
2023-08-03T15:42:22.655Z,1.30
2023-08-03T15:44:53.920Z,1.50
2023-08-03T15:49:52.699Z,1.70
2023-08-03T15:52:31.574Z,1.77
2023-08-03T15:57:32.489Z,1.67
2023-08-03T15:59:59.064Z,1.75
2023-08-03T16:02:25.489Z,2.05
2023-08-03T16:04:54.852Z,1.83
2023-08-03T16:07:21.175Z,1.88
2023-08-03T16:09:48.620Z,1.52
2023-08-03T16:12:17.158Z,1.58
2023-08-03T16:14:44.933Z,1.63
2023-08-03T16:17:11.666Z,1.80
2023-08-03T16:19:40.072Z,1.48
2023-08-03T16:22:06.657Z,1.60
2023-08-03T16:24:33.138Z,2.25
2023-08-03T16:26:59.579Z,2.00
2023-08-03T16:29:28.547Z,1.98
2023-08-03T16:31:55.077Z,1.75
2023-08-03T16:34:27.182Z,1.70
2023-08-03T16:36:54.212Z,1.92
2023-08-03T16:39:20.687Z,1.65
2023-08-03T16:41:47.115Z,1.63
2023-08-03T16:44:13.500Z,1.73
2023-08-03T16:46:41.148Z,1.55
2023-08-03T16:49:07.566Z,1.75
2023-08-03T16:51:34.015Z,1.80
2023-08-03T16:54:02.364Z,1.33
2023-08-03T16:56:28.694Z,1.30
2023-08-03T16:58:54.993Z,1.20
2023-08-03T17:01:21.406Z,1.58
2023-08-03T17:03:47.922Z,1.65
2023-08-03T17:06:14.452Z,1.50
2023-08-03T17:08:40.746Z,1.50
2023-08-03T17:11:07.145Z,1.40
2023-08-03T17:13:33.469Z,1.50
2023-08-03T17:16:05.106Z,1.45
2023-08-03T17:18:33.119Z,1.50
2023-08-03T17:20:59.976Z,1.58
2023-08-03T17:23:26.624Z,1.35
2023-08-03T17:25:53.337Z,1.67
2023-08-03T17:28:19.720Z,1.13
2023-08-03T17:30:46.281Z,1.80
2023-08-03T17:33:12.782Z,1.42
2023-08-03T17:35:39.163Z,1.50
2023-08-03T17:38:05.470Z,1.52
2023-08-03T17:40:31.900Z,1.52
2023-08-03T17:42:58.307Z,1.65
2023-08-03T17:45:24.619Z,1.08
2023-08-03T17:47:51.087Z,1.73
2023-08-03T17:50:17.483Z,1.30
2023-08-03T17:52:43.822Z,1.75
2023-08-03T17:55:10.291Z,1.30
2023-08-03T17:57:43.518Z,1.63
2023-08-03T18:00:10.897Z,1.80
2023-08-03T18:02:37.452Z,1.48
2023-08-03T18:05:03.936Z,1.65
2023-08-03T18:07:30.802Z,1.50
2023-08-03T18:09:57.199Z,1.67
2023-08-03T18:12:23.612Z,1.50
2023-08-03T18:14:50.067Z,1.35
2023-08-03T18:17:16.776Z,1.65
2023-08-03T18:19:43.250Z,1.52
2023-08-03T18:22:09.583Z,1.80
2023-08-03T18:24:35.994Z,1.85
2023-08-03T18:27:02.400Z,1.80
2023-08-03T18:29:33.884Z,1.80
2023-08-03T18:32:00.709Z,1.58
2023-08-03T18:34:27.929Z,1.50
2023-08-03T18:36:54.327Z,1.48
2023-08-03T18:39:20.859Z,1.55
2023-08-03T18:41:47.293Z,1.23
2023-08-03T18:44:15.561Z,1.23
2023-08-03T18:46:42.358Z,1.20
2023-08-03T18:49:08.777Z,1.60
2023-08-03T18:51:35.133Z,1.60
2023-08-03T18:54:01.432Z,1.73
2023-08-03T18:56:27.795Z,1.33
2023-08-03T18:58:55.993Z,1.10
2023-08-03T19:01:22.772Z,1.88
2023-08-03T19:03:50.126Z,1.40
2023-08-03T19:06:17.557Z,1.88
2023-08-03T19:08:45.431Z,2.00
2023-08-03T19:11:12.234Z,1.25
2023-08-03T19:13:38.809Z,1.77
2023-08-03T19:16:07.667Z,1.63
2023-08-03T19:18:34.119Z,1.48
2023-08-03T19:21:00.476Z,1.25
2023-08-03T19:23:26.894Z,1.52
2023-08-03T19:25:55.965Z,1.42
2023-08-03T19:28:22.564Z,1.50
2023-08-03T19:30:48.939Z,1.85
2023-08-03T19:33:15.328Z,2.00
2023-08-03T19:35:42.612Z,1.50
2023-08-03T19:38:09.294Z,1.50
2023-08-03T19:40:35.847Z,1.90
2023-08-03T19:43:03.048Z,1.40
2023-08-03T19:45:32.445Z,1.92
2023-08-03T19:47:59.226Z,1.42
2023-08-03T19:50:27.121Z,1.40
2023-08-03T20:07:51.074Z,1.70
2023-08-03T20:10:17.546Z,1.20
2023-08-03T20:12:44.114Z,1.30
2023-08-03T20:15:15.119Z,1.85
2023-08-03T20:17:41.580Z,1.70
2023-08-03T20:20:10.232Z,1.50
2023-08-03T20:22:36.626Z,2.60
2023-08-03T20:25:03.043Z,1.42
2023-08-03T20:27:29.471Z,1.60
2023-08-03T20:32:28.899Z,1.95
2023-08-03T20:34:55.932Z,1.23
2023-08-03T20:37:22.472Z,1.38
2023-08-03T20:49:47.161Z,1.20
2023-08-03T20:52:15.794Z,1.75
2023-08-03T20:54:43.774Z,1.65
2023-08-03T20:57:10.135Z,1.40
2023-08-03T20:59:36.531Z,1.70
2023-08-03T21:02:05.131Z,1.63
2023-08-03T21:04:38.973Z,1.10
2023-08-03T21:07:05.843Z,1.10
2023-08-03T21:09:32.442Z,1.20
2023-08-03T21:11:58.825Z,1.30
2023-08-03T21:14:25.266Z,1.33
2023-08-03T21:16:51.607Z,1.60
2023-08-03T21:19:17.995Z,1.48
2023-08-03T21:21:45.473Z,1.30
2023-08-03T21:24:14.353Z,1.52
2023-08-03T21:26:40.715Z,1.50
2023-08-03T21:29:08.180Z,1.23
2023-08-03T21:31:39.053Z,1.45
2023-08-03T21:34:05.909Z,1.30
2023-08-03T21:36:32.301Z,1.52
2023-08-03T21:38:58.641Z,1.65
2023-08-03T21:41:24.973Z,1.30
2023-08-03T21:43:51.400Z,1.05
2023-08-03T21:46:18.991Z,1.25
2023-08-03T21:48:45.367Z,1.27
2023-08-03T21:51:15.648Z,1.15
2023-08-03T21:53:42.051Z,1.40
2023-08-03T21:56:14.242Z,1.15
2023-08-03T21:58:40.550Z,1.40
2023-08-03T22:01:10.673Z,1.20
2023-08-03T22:03:37.201Z,1.25
2023-08-03T22:06:04.438Z,1.83
2023-08-03T22:08:30.834Z,1.48
2023-08-03T22:10:57.410Z,1.20
2023-08-03T22:13:23.735Z,1.17
2023-08-03T22:15:55.865Z,1.30
2023-08-03T22:18:22.277Z,1.10
2023-08-03T22:20:49.109Z,1.05
2023-08-03T22:23:18.580Z,1.15
2023-08-03T22:25:46.135Z,1.08
2023-08-03T22:28:12.459Z,0.95
2023-08-03T22:30:39.443Z,1.35
2023-08-03T22:33:05.857Z,1.10
2023-08-03T22:35:32.207Z,1.30
2023-08-03T22:37:58.607Z,1.17
2023-08-03T22:40:24.959Z,1.15
2023-08-03T22:42:51.317Z,1.33
2023-08-03T22:45:17.723Z,1.35
2023-08-03T22:48:02.002Z,1.52
2023-08-03T22:50:30.370Z,1.13
2023-08-03T22:52:56.682Z,1.30
2023-08-03T22:55:23.033Z,1.30
2023-08-03T22:57:49.354Z,1.30
2023-08-03T23:00:15.902Z,1.20
2023-08-03T23:02:43.217Z,1.20
2023-08-03T23:05:09.761Z,1.33
2023-08-03T23:07:36.444Z,1.20
2023-08-03T23:10:02.807Z,1.52
2023-08-03T23:12:29.118Z,1.20
2023-08-03T23:14:55.448Z,1.17
2023-08-03T23:17:21.774Z,0.90
2023-08-03T23:19:48.175Z,1.80
2023-08-03T23:22:14.542Z,1.42
2023-08-03T23:24:40.878Z,1.13
2023-08-03T23:27:07.218Z,1.13
2023-08-03T23:29:33.544Z,1.52
2023-08-03T23:31:59.916Z,1.60
2023-08-03T23:34:26.208Z,1.45
2023-08-03T23:36:52.526Z,1.50
2023-08-03T23:39:18.866Z,1.50
2023-08-03T23:41:45.652Z,1.58
2023-08-03T23:44:12.102Z,1.38
2023-08-03T23:46:38.457Z,1.42
2023-08-03T23:49:04.915Z,1.35
2023-08-03T23:51:31.258Z,1.30
2023-08-03T23:53:58.744Z,1.35
2023-08-03T23:56:25.046Z,1.20
2023-08-03T23:58:51.384Z,1.38
